Time;durP1;ratioP1;P1;durP2;ratioP2;P2;SDS_P1;SDS_P2;PMS_P1;PMS_P2;Temp;Humidity;BMP_temperature;BMP_pressure;BME280_temperature;BME280_humidity;BME280_pressure;Samples;Min_cycle;Max_cycle;Signal;HPM_P1;HPM_P2
2023/03/02 00:01:19;;;;;;;25.63;15.27;;;1.70;1.00;;;;;;5056411;28;20207;-81
2023/03/02 00:03:50;;;;;;;34.80;17.85;;;1.60;1.00;;;;;;5056228;28;20722;-82
2023/03/02 00:06:17;;;;;;;20.65;15.05;;;1.60;1.00;;;;;;5057394;28;20196;-83
2023/03/02 00:08:45;;;;;;;28.48;16.17;;;1.50;1.00;;;;;;5057708;28;20200;-82
2023/03/02 00:11:14;;;;;;;23.65;15.55;;;1.60;1.00;;;;;;5056437;28;20204;-81
2023/03/02 00:13:42;;;;;;;23.17;17.60;;;1.50;1.00;;;;;;5056198;28;20231;-83
2023/03/02 00:16:09;;;;;;;25.05;17.50;;;1.50;1.00;;;;;;5056215;28;20206;-84
2023/03/02 00:18:36;;;;;;;33.13;18.23;;;1.50;1.00;;;;;;5055953;28;20725;-82
2023/03/02 00:21:04;;;;;;;32.90;19.55;;;1.80;99.90;;;;;;5056299;28;20677;-83
2023/03/02 00:23:31;;;;;;;28.95;18.10;;;1.60;18.80;;;;;;5059204;28;20233;-80
2023/03/02 00:25:58;;;;;;;28.80;17.65;;;1.70;88.90;;;;;;5059500;28;20266;-82
2023/03/02 00:28:25;;;;;;;28.35;17.67;;;1.90;92.60;;;;;;5057616;28;20227;-80
2023/03/02 00:30:52;;;;;;;26.55;16.27;;;1.70;1.00;;;;;;5057586;28;20637;-82
2023/03/02 00:33:19;;;;;;;28.77;16.90;;;1.80;1.00;;;;;;5058709;28;20223;-83
2023/03/02 00:35:46;;;;;;;27.33;16.95;;;1.80;99.90;;;;;;5058141;28;20208;-80
2023/03/02 00:38:15;;;;;;;30.02;19.77;;;1.70;1.00;;;;;;5058829;28;20273;-79
2023/03/02 00:40:45;;;;;;;35.30;19.02;;;1.70;15.10;;;;;;5071872;28;20194;-80
2023/03/02 00:43:11;;;;;;;27.90;17.27;;;1.70;1.00;;;;;;5067093;28;20227;-83
2023/03/02 00:45:38;;;;;;;26.27;14.90;;;1.60;23.50;;;;;;5057970;28;20203;-83
2023/03/02 00:48:05;;;;;;;23.40;15.38;;;1.50;99.90;;;;;;5058144;28;20203;-82
2023/03/02 00:50:32;;;;;;;24.00;15.90;;;1.40;56.50;;;;;;5055702;28;20670;-81
2023/03/02 00:52:59;;;;;;;25.35;17.70;;;1.40;99.90;;;;;;5057567;28;20234;-81
2023/03/02 00:55:28;;;;;;;29.08;16.02;;;1.40;99.90;;;;;;5062749;28;20207;-82
2023/03/02 00:57:54;;;;;;;24.73;17.63;;;1.40;99.90;;;;;;5059356;28;20203;-81
2023/03/02 01:00:22;;;;;;;24.45;16.73;;;1.50;99.90;;;;;;5058112;28;20260;-81
2023/03/02 01:02:49;;;;;;;23.17;15.20;;;1.50;1.00;;;;;;5058639;28;20227;-80
2023/03/02 01:05:17;;;;;;;29.27;17.52;;;1.50;1.00;;;;;;5059357;28;20298;-79
2023/03/02 01:07:44;;;;;;;28.45;16.02;;;1.60;1.00;;;;;;5060175;28;20210;-81
2023/03/02 01:10:11;;;;;;;23.67;14.75;;;1.60;1.00;;;;;;5059928;28;20207;-81
2023/03/02 01:12:40;;;;;;;27.75;16.17;;;1.70;1.00;;;;;;5058712;28;20238;-80
2023/03/02 01:15:08;;;;;;;34.90;16.65;;;1.60;99.90;;;;;;5060827;28;20199;-80
2023/03/02 01:17:35;;;;;;;22.90;16.25;;;1.60;99.90;;;;;;5058217;28;20707;-82
2023/03/02 01:20:03;;;;;;;27.85;15.50;;;1.50;99.90;;;;;;5057752;28;20314;-79
2023/03/02 01:22:30;;;;;;;23.42;15.93;;;1.40;99.90;;;;;;5056385;28;20220;-82
2023/03/02 01:24:57;;;;;;;29.17;16.50;;;1.40;99.90;;;;;;5055919;28;20203;-82
2023/03/02 01:27:24;;;;;;;23.48;15.45;;;1.40;99.90;;;;;;5060344;28;20213;-81
2023/03/02 01:29:52;;;;;;;21.08;15.45;;;1.40;1.00;;;;;;5058136;28;20210;-82
2023/03/02 01:32:19;;;;;;;17.20;13.13;;;1.30;1.00;;;;;;5056168;28;20224;-82
2023/03/02 01:34:46;;;;;;;18.52;13.55;;;1.30;1.00;;;;;;5055421;28;20208;-82
2023/03/02 01:37:13;;;;;;;25.05;13.52;;;1.40;99.90;;;;;;5055029;28;20213;-82
2023/03/02 01:39:39;;;;;;;24.65;14.20;;;1.40;99.90;;;;;;5055077;28;20301;-82
2023/03/02 01:42:06;;;;;;;21.13;13.00;;;1.60;1.00;;;;;;5056755;28;20207;-82
2023/03/02 01:44:35;;;;;;;18.25;12.75;;;1.60;1.00;;;;;;5058589;28;20200;-82
2023/03/02 01:47:12;;;;;;;20.45;14.15;;;1.60;1.00;;;;;;5059374;28;20619;-82
2023/03/02 01:49:44;;;;;;;20.25;12.90;;;1.60;1.00;;;;;;5059485;28;20187;-83
2023/03/02 01:52:12;;;;;;;17.92;12.50;;;1.80;99.90;;;;;;5058574;28;20198;-83
2023/03/02 01:54:40;;;;;;;19.90;12.90;;;1.80;99.90;;;;;;5058281;28;20216;-81
2023/03/02 01:57:08;;;;;;;22.98;13.75;;;1.70;1.00;;;;;;5058262;28;20210;-81
2023/03/02 01:59:37;;;;;;;23.02;13.10;;;1.70;1.00;;;;;;5058479;28;20255;-82
2023/03/02 02:02:10;;;;;;;18.83;13.15;;;1.70;39.50;;;;;;5058884;28;20682;-81
2023/03/02 02:04:39;;;;;;;22.02;13.35;;;1.70;1.00;;;;;;5059280;28;20188;-80
2023/03/02 02:07:09;;;;;;;20.95;13.38;;;1.60;1.00;;;;;;5058096;28;20257;-82
2023/03/02 02:09:39;;;;;;;18.50;11.98;;;1.50;1.00;;;;;;5058238;28;20206;-81
2023/03/02 02:12:06;;;;;;;14.63;11.40;;;1.60;99.90;;;;;;5057892;28;20215;-80
2023/03/02 02:14:33;;;;;;;20.98;12.82;;;1.50;99.90;;;;;;5087132;22;20303;-81
2023/03/02 02:17:00;;;;;;;18.75;13.50;;;1.60;99.90;;;;;;5071780;28;20595;-83
2023/03/02 02:19:39;;;;;;;24.38;14.75;;;1.60;99.90;;;;;;5067993;28;20283;-81
2023/03/02 02:22:09;;;;;;;23.80;13.25;;;1.60;1.00;;;;;;5064341;28;20219;-82
2023/03/02 02:24:41;;;;;;;22.65;13.43;;;1.50;99.90;;;;;;5061719;28;20238;-81
2023/03/02 02:27:12;;;;;;;19.48;13.50;;;1.60;1.00;;;;;;5060779;28;20200;-82
2023/03/02 02:29:44;;;;;;;21.27;13.82;;;1.40;1.00;;;;;;5061662;28;20222;-82
2023/03/02 02:32:15;;;;;;;21.67;14.95;;;1.50;1.00;;;;;;5066106;28;20211;-81
2023/03/02 02:34:48;;;;;;;21.98;14.02;;;1.20;1.00;;;;;;5074955;28;20287;-81
2023/03/02 02:37:20;;;;;;;16.10;12.52;;;1.20;1.00;;;;;;5074509;28;20198;-81
2023/03/02 02:39:49;;;;;;;20.77;12.90;;;3.90;1.00;;;;;;5075050;28;20249;-81
2023/03/02 02:42:21;;;;;;;21.55;12.80;;;1.20;99.90;;;;;;5075691;28;20630;-82
2023/03/02 02:44:48;;;;;;;21.75;13.82;;;1.80;62.10;;;;;;5075373;28;20288;-82
2023/03/02 02:47:17;;;;;;;22.20;12.07;;;1.20;99.90;;;;;;5074533;28;20207;-82
2023/03/02 02:49:46;;;;;;;16.75;12.13;;;1.20;99.90;;;;;;5074003;28;20263;-83
2023/03/02 02:52:16;;;;;;;19.02;12.48;;;1.20;99.90;;;;;;5071386;28;20234;-82
2023/03/02 02:54:46;;;;;;;23.20;13.77;;;1.30;99.90;;;;;;5070156;28;20223;-82
2023/03/02 02:57:16;;;;;;;20.90;12.77;;;1.30;99.90;;;;;;5070277;28;20251;-82
2023/03/02 02:59:47;;;;;;;21.20;12.90;;;2.60;99.90;;;;;;5070258;28;20214;-83
2023/03/02 03:02:19;;;;;;;22.08;12.90;;;1.40;14.50;;;;;;5070179;28;20256;-82
2023/03/02 03:04:46;;;;;;;22.00;12.95;;;1.40;78.60;;;;;;5070006;28;20243;-83
2023/03/02 03:07:19;;;;;;;18.58;13.18;;;1.40;99.90;;;;;;5070196;28;20212;-82
2023/03/02 03:09:51;;;;;;;18.33;12.88;;;1.30;99.90;;;;;;5069904;28;20215;-82
2023/03/02 03:12:21;;;;;;;22.13;14.10;;;1.30;99.90;;;;;;5069762;28;20622;-83
2023/03/02 03:14:51;;;;;;;23.60;14.88;;;1.40;99.90;;;;;;5077440;28;20215;-82
2023/03/02 03:17:18;;;;;;;26.02;13.40;;;1.00;99.90;;;;;;5080096;28;20184;-82
2023/03/02 03:19:46;;;;;;;23.98;14.20;;;1.10;99.90;;;;;;5077712;28;20233;-82
2023/03/02 03:22:15;;;;;;;27.63;14.40;;;1.00;99.90;;;;;;5067007;28;20267;-82
2023/03/02 03:24:44;;;;;;;21.65;14.35;;;1.00;99.90;;;;;;5066357;28;20314;-82
2023/03/02 03:27:14;;;;;;;28.45;14.60;;;1.00;99.90;;;;;;5066416;28;20205;-82
2023/03/02 03:29:44;;;;;;;24.73;13.82;;;1.00;99.90;;;;;;5065554;28;20670;-83
2023/03/02 03:32:12;;;;;;;22.13;13.02;;;1.10;1.00;;;;;;5065685;28;20207;-82
2023/03/02 03:34:39;;;;;;;23.80;13.80;;;1.10;99.90;;;;;;5065664;28;20313;-82
2023/03/02 03:37:06;;;;;;;24.08;14.27;;;1.20;99.90;;;;;;5065817;28;20213;-82
2023/03/02 03:39:33;;;;;;;18.73;13.98;;;1.40;99.90;;;;;;5071889;28;20211;-82
2023/03/02 03:42:00;;;;;;;18.52;13.55;;;1.40;1.00;;;;;;5079217;28;20227;-83
2023/03/02 03:44:27;;;;;;;22.42;12.77;;;1.10;99.90;;;;;;5079231;28;20209;-82
2023/03/02 03:46:55;;;;;;;15.73;12.60;;;1.10;99.90;;;;;;5074650;28;20196;-82
2023/03/02 03:49:23;;;;;;;20.85;13.85;;;1.00;99.90;;;;;;5069021;28;20196;-83
2023/03/02 03:51:50;;;;;;;21.35;13.10;;;0.80;99.90;;;;;;5068295;28;20243;-83
2023/03/02 03:54:17;;;;;;;17.80;12.85;;;0.80;99.90;;;;;;5067549;28;20287;-83
2023/03/02 03:56:46;;;;;;;20.75;12.77;;;0.70;99.90;;;;;;5067564;28;20289;-83
2023/03/02 03:59:15;;;;;;;23.55;13.68;;;2.90;1.00;;;;;;5071263;28;20236;-83
2023/03/02 04:01:44;;;;;;;22.85;14.07;;;0.60;1.00;;;;;;5070772;28;20241;-83
2023/03/02 04:04:14;;;;;;;20.77;13.15;;;0.60;1.00;;;;;;5072197;28;20250;-83
2023/03/02 04:06:43;;;;;;;23.27;14.13;;;1.20;1.00;;;;;;5073093;28;20195;-82
2023/03/02 04:09:11;;;;;;;19.80;13.65;;;0.40;1.00;;;;;;5072312;28;20238;-82
2023/03/02 04:11:39;;;;;;;19.05;13.73;;;0.60;1.00;;;;;;5066543;28;20207;-82
2023/03/02 04:14:07;;;;;;;20.17;12.98;;;0.50;1.00;;;;;;5066761;28;20298;-82
2023/03/02 04:16:35;;;;;;;23.48;16.13;;;0.40;1.00;;;;;;5067467;28;20301;-82
2023/03/02 04:19:03;;;;;;;30.30;16.13;;;0.50;1.00;;;;;;5068784;28;20207;-82
2023/03/02 04:21:30;;;;;;;21.20;15.50;;;0.60;1.00;;;;;;5072049;28;20198;-82
2023/03/02 04:23:58;;;;;;;24.52;16.23;;;1.70;9.80;;;;;;5077966;28;20215;-81
2023/03/02 04:26:26;;;;;;;26.00;15.73;;;0.70;99.90;;;;;;5078172;28;20211;-82
2023/03/02 04:28:53;;;;;;;35.17;15.65;;;0.80;1.00;;;;;;5076788;28;20207;-82
2023/03/02 04:31:20;;;;;;;24.17;15.52;;;0.80;1.00;;;;;;5077458;28;20204;-82
2023/03/02 04:33:46;;;;;;;22.60;15.40;;;0.80;1.00;;;;;;5073297;28;20207;-82
2023/03/02 04:36:13;;;;;;;26.63;16.83;;;0.60;27.50;;;;;;5075424;28;20188;-82
2023/03/02 04:38:40;;;;;;;32.60;19.58;;;0.70;1.00;;;;;;5071946;28;20270;-83
2023/03/02 04:41:08;;;;;;;31.65;18.50;;;0.70;1.00;;;;;;5068190;28;20288;-83
2023/03/02 04:43:35;;;;;;;29.25;17.40;;;3.30;1.00;;;;;;5067458;28;20282;-83
2023/03/02 04:46:02;;;;;;;28.10;17.33;;;0.70;16.90;;;;;;5070354;28;20214;-83
2023/03/02 04:48:29;;;;;;;24.67;14.02;;;0.70;58.90;;;;;;5065142;28;20741;-83
2023/03/02 04:50:56;;;;;;;20.98;14.52;;;0.60;24.80;;;;;;5070120;28;20238;-83
2023/03/02 04:53:23;;;;;;;30.88;18.83;;;0.50;1.00;;;;;;5068578;28;20287;-83
2023/03/02 04:55:50;;;;;;;32.40;16.05;;;0.60;1.00;;;;;;5068760;28;20266;-83
2023/03/02 04:58:18;;;;;;;24.88;15.05;;;0.40;99.90;;;;;;5078421;28;20184;-82
2023/03/02 05:00:45;;;;;;;29.42;14.68;;;0.50;11.10;;;;;;5078435;28;20207;-83
2023/03/02 05:03:12;;;;;;;22.92;15.48;;;0.30;37.90;;;;;;5074962;28;20282;-83
2023/03/02 05:05:39;;;;;;;28.15;17.15;;;0.40;99.90;;;;;;5072156;28;20210;-83
2023/03/02 05:08:05;;;;;;;24.10;16.58;;;0.60;99.90;;;;;;5072877;28;20242;-83
2023/03/02 05:10:32;;;;;;;21.98;16.63;;;0.70;99.90;;;;;;5070586;28;20235;-84
2023/03/02 05:13:01;;;;;;;27.73;15.70;;;0.60;99.90;;;;;;5071331;28;20700;-85
2023/03/02 05:15:32;;;;;;;25.50;16.88;;;0.90;99.90;;;;;;5072058;28;20192;-82
2023/03/02 05:17:59;;;;;;;24.77;15.38;;;0.90;99.90;;;;;;5078687;28;20195;-83
2023/03/02 05:20:29;;;;;;;27.95;17.65;;;0.90;94.00;;;;;;5079964;28;20226;-81
2023/03/02 05:22:57;;;;;;;28.23;17.65;;;1.00;73.40;;;;;;5078948;28;20223;-83
2023/03/02 05:25:25;;;;;;;29.67;15.82;;;0.90;99.90;;;;;;5076937;28;20265;-82
2023/03/02 05:27:52;;;;;;;25.80;16.55;;;1.00;4.60;;;;;;5073364;28;20223;-83
2023/03/02 05:30:20;;;;;;;27.58;17.50;;;1.00;1.00;;;;;;5072114;28;20237;-83
2023/03/02 05:32:48;;;;;;;25.75;16.92;;;0.90;1.00;;;;;;5070773;28;20230;-83
2023/03/02 05:35:16;;;;;;;28.05;18.67;;;0.90;1.00;;;;;;5070882;28;20231;-82
2023/03/02 05:37:43;;;;;;;26.40;16.90;;;0.90;13.10;;;;;;5071422;28;20701;-85
2023/03/02 05:40:14;;;;;;;29.13;16.77;;;0.90;30.70;;;;;;5076122;28;20219;-82
2023/03/02 05:42:41;;;;;;;30.38;18.40;;;0.90;99.90;;;;;;5074265;28;20215;-83
2023/03/02 05:45:22;;;;;;;25.17;16.25;;;0.80;63.80;;;;;;5074863;28;20239;-83
2023/03/02 05:47:50;;;;;;;27.50;17.90;;;0.80;66.20;;;;;;5073604;28;20221;-83
2023/03/02 05:50:17;;;;;;;28.35;18.88;;;0.80;70.70;;;;;;5073043;28;20293;-83
2023/03/02 05:52:45;;;;;;;27.60;17.70;;;0.50;99.90;;;;;;5068830;28;20204;-83
2023/03/02 05:55:13;;;;;;;31.40;19.15;;;0.50;99.90;;;;;;5072713;28;20212;-83
2023/03/02 05:57:40;;;;;;;32.65;19.83;;;0.60;99.90;;;;;;5068340;28;20208;-82
2023/03/02 06:00:10;;;;;;;32.40;19.75;;;0.70;99.90;;;;;;5069333;28;20319;-81
2023/03/02 06:02:38;;;;;;;33.35;19.73;;;0.80;99.90;;;;;;5073306;28;20263;-81
2023/03/02 06:05:08;;;;;;;34.55;21.60;;;0.60;99.90;;;;;;5077926;28;20198;-82
2023/03/02 06:07:35;;;;;;;30.90;20.08;;;0.60;99.90;;;;;;5077420;28;20209;-81
2023/03/02 06:10:02;;;;;;;29.80;18.33;;;0.70;99.90;;;;;;5070410;28;20204;-82
2023/03/02 06:12:29;;;;;;;37.63;20.75;;;0.90;99.90;;;;;;5069120;28;20199;-82
2023/03/02 06:14:55;;;;;;;26.48;17.58;;;0.60;99.90;;;;;;5073451;28;20207;-82
2023/03/02 06:17:22;;;;;;;32.63;19.85;;;0.70;99.90;;;;;;5075882;28;20203;-82
2023/03/02 06:19:49;;;;;;;35.60;20.88;;;0.60;99.90;;;;;;5074669;28;20223;-82
2023/03/02 06:22:18;;;;;;;29.23;21.55;;;2.10;99.90;;;;;;5070743;28;20212;-83
2023/03/02 06:24:45;;;;;;;35.92;24.52;;;0.60;99.90;;;;;;5071121;28;20287;-83
2023/03/02 06:27:12;;;;;;;36.97;22.73;;;0.90;99.90;;;;;;5071706;28;20655;-82
2023/03/02 06:29:39;;;;;;;36.28;22.20;;;0.60;99.90;;;;;;5073257;28;20246;-83
2023/03/02 06:32:06;;;;;;;44.13;25.67;;;0.70;99.90;;;;;;5074239;28;20207;-82
2023/03/02 06:34:33;;;;;;;36.53;23.38;;;0.60;99.90;;;;;;5070508;28;20237;-82
2023/03/02 06:37:00;;;;;;;40.70;24.67;;;0.70;99.90;;;;;;5071706;28;20227;-82
2023/03/02 06:39:29;;;;;;;36.60;22.08;;;0.90;99.90;;;;;;5080557;28;20251;-82
2023/03/02 06:41:55;;;;;;;34.88;22.50;;;0.70;99.90;;;;;;5080565;28;20327;-82
2023/03/02 06:44:22;;;;;;;38.67;23.05;;;0.80;99.90;;;;;;5073991;28;20273;-83
2023/03/02 06:46:49;;;;;;;36.03;22.38;;;1.20;99.90;;;;;;5060441;28;20229;-83
2023/03/02 06:49:16;;;;;;;36.67;22.90;;;0.90;99.90;;;;;;5061231;28;20295;-83
2023/03/02 06:51:43;;;;;;;33.15;21.98;;;1.20;99.90;;;;;;5062659;28;20203;-83
2023/03/02 06:54:10;;;;;;;40.70;23.50;;;1.20;99.90;;;;;;5063220;28;20246;-83
2023/03/02 06:56:38;;;;;;;36.08;22.90;;;1.10;99.90;;;;;;5066782;28;20702;-82
2023/03/02 06:59:05;;;;;;;37.25;23.58;;;1.00;99.90;;;;;;5066084;28;20266;-83
2023/03/02 07:01:34;;;;;;;42.00;22.40;;;0.90;30.10;;;;;;5066585;28;20229;-83
2023/03/02 07:04:01;;;;;;;53.47;24.17;;;1.00;51.00;;;;;;5064478;28;20596;-83
2023/03/02 07:06:28;;;;;;;64.57;28.45;;;0.90;94.00;;;;;;5064194;28;20261;-83
2023/03/02 07:08:55;;;;;;;37.42;23.15;;;0.80;99.90;;;;;;5063828;28;20199;-83
2023/03/02 07:11:21;;;;;;;50.70;23.48;;;0.80;99.90;;;;;;5064998;28;20305;-82
2023/03/02 07:13:50;;;;;;;34.08;22.02;;;0.80;99.90;;;;;;5064656;28;20238;-82
2023/03/02 07:16:17;;;;;;;39.45;22.80;;;0.90;99.90;;;;;;5064122;28;20756;-82
2023/03/02 07:18:44;;;;;;;42.00;23.80;;;0.90;80.70;;;;;;5064289;28;20656;-82
2023/03/02 07:21:11;;;;;;;37.65;21.25;;;0.70;1.00;;;;;;5066209;28;20233;-82
2023/03/02 07:23:38;;;;;;;35.40;20.95;;;0.50;53.30;;;;;;5067201;28;20595;-83
2023/03/02 07:26:07;;;;;;;41.75;21.13;;;0.50;66.10;;;;;;5066243;28;20290;-83
2023/03/02 07:28:34;;;;;;;40.22;23.77;;;0.40;8.80;;;;;;5065497;28;20215;-82
2023/03/02 07:31:02;;;;;;;37.67;23.27;;;0.10;99.50;;;;;;5066326;28;20208;-82
2023/03/02 07:33:29;;;;;;;30.67;18.08;;;0.10;99.90;;;;;;5065594;28;20291;-82
2023/03/02 07:35:56;;;;;;;37.40;21.55;;;0.10;99.90;;;;;;5065769;28;20223;-82
2023/03/02 07:38:23;;;;;;;38.65;21.92;;;0.40;99.90;;;;;;5065588;28;20230;-82
2023/03/02 07:40:50;;;;;;;41.60;21.58;;;0.20;99.90;;;;;;5071071;28;20246;-82
2023/03/02 07:43:17;;;;;;;40.17;20.77;;;0.20;99.90;;;;;;5065946;28;20227;-83
2023/03/02 07:45:44;;;;;;;40.13;22.50;;;0.30;99.90;;;;;;5066001;28;20239;-83
2023/03/02 07:48:12;;;;;;;42.72;24.77;;;1.50;98.50;;;;;;5065451;28;20678;-83
2023/03/02 07:50:39;;;;;;;41.15;21.25;;;0.40;54.10;;;;;;5066209;28;20195;-83
2023/03/02 07:55:53;;;;;;;38.65;21.23;;;0.10;99.90;;;;;;5061965;28;20202;-82
2023/03/02 07:58:20;;;;;;;45.95;24.02;;;0.20;99.90;;;;;;5065126;28;20212;-83
2023/03/02 08:00:47;;;;;;;38.90;21.95;;;0.20;99.90;;;;;;5066376;28;20244;-81
2023/03/02 08:03:16;;;;;;;44.05;23.75;;;0.60;99.90;;;;;;5069567;28;20226;-82
2023/03/02 08:05:43;;;;;;;53.15;23.52;;;0.60;99.90;;;;;;5069771;28;20273;-82
2023/03/02 08:08:09;;;;;;;47.70;24.73;;;0.40;99.90;;;;;;5070286;28;20266;-82
2023/03/02 08:10:36;;;;;;;48.40;21.63;;;0.40;99.90;;;;;;5068245;28;20214;-83
2023/03/02 08:13:04;;;;;;;44.25;23.35;;;1.70;99.90;;;;;;5068141;28;20299;-83
2023/03/02 08:15:31;;;;;;;45.30;25.42;;;0.40;99.90;;;;;;5070597;28;20258;-82
2023/03/02 08:17:58;;;;;;;44.47;23.50;;;1.00;99.90;;;;;;5070604;28;20191;-83
2023/03/02 08:20:26;;;;;;;36.97;22.58;;;0.50;1.00;;;;;;5074330;28;20219;-83
2023/03/02 08:22:53;;;;;;;44.15;22.08;;;0.70;99.90;;;;;;5073743;28;20226;-82
2023/03/02 08:25:20;;;;;;;35.58;21.65;;;0.80;41.90;;;;;;5075569;28;20205;-82
2023/03/02 08:27:47;;;;;;;42.08;22.88;;;0.80;1.00;;;;;;5075755;28;20203;-81
2023/03/02 08:30:15;;;;;;;41.45;23.15;;;1.00;1.00;;;;;;5072349;28;20206;-82
2023/03/02 08:32:41;;;;;;;43.88;22.27;;;0.90;1.00;;;;;;5072408;28;20212;-83
2023/03/02 08:35:09;;;;;;;33.03;18.55;;;0.70;1.00;;;;;;5068028;28;20202;-83
2023/03/02 08:37:37;;;;;;;42.72;22.65;;;0.50;1.00;;;;;;5067770;28;20207;-82
2023/03/02 08:40:05;;;;;;;40.05;21.60;;;0.70;99.90;;;;;;5067272;28;20199;-82
2023/03/02 08:42:31;;;;;;;35.95;22.17;;;1.20;57.30;;;;;;5065896;28;20250;-83
2023/03/02 08:44:58;;;;;;;44.33;21.40;;;0.90;1.00;;;;;;5070592;28;20231;-81
2023/03/02 08:47:25;;;;;;;35.60;22.90;;;0.80;1.00;;;;;;5071676;28;20207;-82
2023/03/02 08:49:52;;;;;;;34.58;20.17;;;0.70;1.00;;;;;;5068410;28;20207;-83
2023/03/02 08:52:19;;;;;;;40.20;21.15;;;0.60;1.00;;;;;;5066626;28;20200;-82
2023/03/02 08:54:47;;;;;;;38.72;21.48;;;0.60;47.70;;;;;;5072536;28;20291;-82
2023/03/02 08:57:14;;;;;;;43.42;23.23;;;0.50;63.60;;;;;;5075401;28;20238;-82
2023/03/02 08:59:41;;;;;;;92.80;32.00;;;1.10;99.90;;;;;;5074078;28;20228;-83
2023/03/02 09:02:10;;;;;;;86.60;28.88;;;0.50;99.90;;;;;;5076289;28;20223;-82
2023/03/02 09:04:37;;;;;;;81.78;27.60;;;;;;;;;;5070312;28;20265;-83
2023/03/02 09:07:04;;;;;;;63.53;26.30;;;0.50;99.90;;;;;;5065731;28;20207;-82
2023/03/02 09:09:31;;;;;;;68.00;26.65;;;0.50;99.90;;;;;;5065873;28;20213;-82
2023/03/02 09:12:00;;;;;;;171.43;36.83;;;0.50;99.90;;;;;;5065193;28;20199;-83
2023/03/02 09:14:27;;;;;;;67.18;27.15;;;0.40;99.90;;;;;;5064691;28;20784;-83
2023/03/02 09:16:54;;;;;;;85.28;28.90;;;0.60;99.90;;;;;;5066310;28;20237;-82
2023/03/02 09:19:21;;;;;;;49.83;24.00;;;1.00;99.90;;;;;;5064681;28;20206;-83
2023/03/02 09:21:48;;;;;;;46.20;23.08;;;0.90;99.90;;;;;;5064676;28;20323;-83
2023/03/02 09:24:15;;;;;;;46.60;23.98;;;0.90;15.70;;;;;;5063861;28;20218;-83
2023/03/02 09:26:42;;;;;;;56.55;23.25;;;0.60;1.00;;;;;;5065755;28;20213;-84
2023/03/02 09:29:11;;;;;;;89.63;29.50;;;0.50;99.90;;;;;;5065938;28;20263;-84
2023/03/02 09:31:38;;;;;;;59.08;26.90;;;0.50;99.90;;;;;;5065347;28;20202;-83
2023/03/02 09:34:05;;;;;;;62.85;27.75;;;0.50;99.90;;;;;;5073150;28;20287;-83
2023/03/02 09:36:33;;;;;;;68.50;31.73;;;0.50;99.90;;;;;;5073884;28;20184;-83
2023/03/02 09:39:00;;;;;;;66.65;28.42;;;0.60;99.90;;;;;;5071655;28;20220;-83
2023/03/02 09:41:53;;;;;;;67.88;27.77;;;0.60;99.90;;;;;;5066485;28;20285;-83
2023/03/02 09:44:41;;;;;;;62.70;26.10;;;0.80;99.90;;;;;;5066637;28;20262;-83
2023/03/02 09:47:15;;;;;;;68.95;27.33;;;0.50;99.90;;;;;;5069636;28;20261;-83
2023/03/02 09:49:55;;;;;;;68.38;31.48;;;0.80;99.90;;;;;;5066827;28;20183;-83
2023/03/02 09:52:30;;;;;;;51.53;27.55;;;0.80;99.90;;;;;;5069323;28;20183;-83
2023/03/02 09:55:02;;;;;;;63.70;26.70;;;1.60;99.90;;;;;;5074284;28;20219;-83
2023/03/02 09:57:33;;;;;;;63.67;24.13;;;1.30;1.00;;;;;;5073266;28;20202;-83
2023/03/02 10:00:06;;;;;;;56.03;25.92;;;1.50;99.90;;;;;;5068377;28;20216;-82
2023/03/02 10:02:37;;;;;;;52.03;25.33;;;1.30;1.00;;;;;;5072125;28;20219;-82
2023/03/02 10:05:11;;;;;;;48.72;23.40;;;1.40;1.00;;;;;;5073827;28;20557;-83
2023/03/02 10:07:39;;;;;;;55.97;22.75;;;1.40;1.00;;;;;;5069709;28;20195;-83
2023/03/02 10:10:21;;;;;;;52.75;24.40;;;1.30;1.00;;;;;;5073046;28;20208;-83
2023/03/02 10:13:03;;;;;;;54.20;24.38;;;1.30;1.00;;;;;;5070191;28;20230;-83
2023/03/02 10:15:38;;;;;;;61.03;27.88;;;1.70;1.00;;;;;;5070466;28;20188;-82
2023/03/02 10:18:17;;;;;;;56.30;25.88;;;1.90;99.90;;;;;;5069575;28;20187;-83
2023/03/02 10:20:47;;;;;;;61.15;25.73;;;1.70;99.90;;;;;;5064343;28;20198;-83
2023/03/02 10:23:27;;;;;;;60.88;26.67;;;1.90;99.90;;;;;;5065052;28;20223;-83
2023/03/02 10:25:59;;;;;;;59.72;25.70;;;1.90;1.00;;;;;;5070072;28;20188;-83
2023/03/02 10:28:32;;;;;;;59.65;27.67;;;1.90;99.90;;;;;;5075567;28;20204;-82
2023/03/02 10:31:09;;;;;;;62.60;28.23;;;2.00;1.00;;;;;;5075443;28;20258;-82
2023/03/02 10:33:38;;;;;;;62.63;28.30;;;1.90;1.00;;;;;;5075165;28;20295;-82
2023/03/02 10:36:14;;;;;;;58.95;26.25;;;2.00;3.70;;;;;;5068882;28;20750;-82
2023/03/02 10:38:41;;;;;;;49.85;23.88;;;2.00;1.00;;;;;;5066307;28;20255;-82
2023/03/02 10:41:13;;;;;;;52.42;22.98;;;2.10;1.00;;;;;;5066856;28;20227;-82
2023/03/02 10:43:45;;;;;;;49.08;24.33;;;1.90;99.90;;;;;;5067722;28;20229;-83
2023/03/02 10:46:14;;;;;;;52.15;22.35;;;1.70;99.90;;;;;;5066627;28;20188;-83
2023/03/02 10:48:49;;;;;;;52.83;25.40;;;1.60;99.90;;;;;;5066474;28;20207;-82
2023/03/02 10:51:25;;;;;;;53.25;24.77;;;1.90;1.00;;;;;;5066950;28;20278;-82
2023/03/02 10:54:06;;;;;;;63.97;24.38;;;1.40;1.00;;;;;;5075239;28;20223;-83
2023/03/02 10:56:34;;;;;;;49.00;25.83;;;1.90;99.90;;;;;;5080796;28;20171;-82
2023/03/02 10:59:03;;;;;;;51.15;25.27;;;1.70;99.90;;;;;;5080551;28;20229;-82
2023/03/02 11:01:31;;;;;;;47.58;24.70;;;1.50;99.90;;;;;;5070610;28;20283;-83
2023/03/02 11:04:00;;;;;;;42.85;23.67;;;1.60;99.90;;;;;;5070020;28;20228;-82
2023/03/02 11:06:29;;;;;;;50.97;25.48;;;1.50;99.90;;;;;;5069031;28;20222;-83
2023/03/02 11:09:01;;;;;;;56.45;24.02;;;1.50;99.90;;;;;;5071485;28;20229;-82
2023/03/02 11:11:29;;;;;;;43.45;22.10;;;1.50;99.90;;;;;;5070335;28;20207;-83
2023/03/02 11:13:56;;;;;;;47.80;24.42;;;1.60;99.90;;;;;;5068263;28;20249;-83
2023/03/02 11:16:27;;;;;;;43.97;22.42;;;1.70;99.90;;;;;;5068854;28;20204;-82
2023/03/02 11:18:59;;;;;;;46.38;21.85;;;-0.10;1.00;;;;;;5067390;28;20243;-83
2023/03/02 11:21:34;;;;;;;81.55;32.97;;;1.80;1.00;;;;;;5067722;28;20523;-83
2023/03/02 11:24:08;;;;;;;78.10;31.30;;;2.50;99.90;;;;;;5068028;28;20254;-82
2023/03/02 11:26:39;;;;;;;59.35;29.65;;;1.90;99.90;;;;;;5068650;28;20233;-82
2023/03/02 11:29:12;;;;;;;55.10;26.67;;;2.10;99.90;;;;;;5066553;28;20198;-82
2023/03/02 11:31:44;;;;;;;40.47;23.02;;;2.00;1.00;;;;;;5071825;28;20203;-81
2023/03/02 11:34:26;;;;;;;38.53;21.55;;;2.00;99.90;;;;;;5071659;28;20232;-82
2023/03/02 11:37:02;;;;;;;69.05;25.73;;;2.00;1.00;;;;;;5073119;28;20188;-83
2023/03/02 11:39:36;;;;;;;45.95;24.95;;;1.90;1.00;;;;;;5073536;28;20187;-82
2023/03/02 11:42:03;;;;;;;57.60;26.67;;;3.40;1.00;;;;;;5073115;28;20215;-82
2023/03/02 11:44:30;;;;;;;59.38;28.25;;;2.10;1.00;;;;;;5071440;28;20226;-82
2023/03/02 11:47:00;;;;;;;91.43;30.55;;;2.00;1.00;;;;;;5071478;28;20203;-82
2023/03/02 11:49:36;;;;;;;87.97;29.05;;;2.10;1.00;;;;;;5072653;28;20192;-82
2023/03/02 11:52:04;;;;;;;55.92;24.25;;;2.10;1.00;;;;;;5072548;28;20191;-83
2023/03/02 11:54:38;;;;;;;42.58;22.85;;;2.20;99.90;;;;;;5072222;28;20224;-84
2023/03/02 11:57:06;;;;;;;40.28;22.23;;;2.20;99.90;;;;;;5072823;28;20246;-82
2023/03/02 11:59:34;;;;;;;39.03;19.48;;;2.30;16.60;;;;;;5072503;28;20227;-82
2023/03/02 12:02:02;;;;;;;40.30;20.42;;;2.30;1.00;;;;;;5069538;28;20216;-82
2023/03/02 12:04:33;;;;;;;42.38;22.95;;;2.40;1.00;;;;;;5069431;28;20318;-82
2023/03/02 12:07:02;;;;;;;46.42;20.65;;;2.50;1.00;;;;;;5072991;28;20167;-82
2023/03/02 12:09:35;;;;;;;35.35;18.30;;;5.20;99.90;;;;;;5078914;28;20196;-82
2023/03/02 12:12:29;;;;;;;32.38;19.65;;;2.90;1.00;;;;;;5072076;28;20187;-82
2023/03/02 12:14:56;;;;;;;33.40;20.50;;;3.10;46.80;;;;;;5069369;28;20215;-83
2023/03/02 12:17:32;;;;;;;34.53;19.27;;;3.00;1.00;;;;;;5066862;28;20226;-83
2023/03/02 12:20:25;;;;;;;24.63;15.68;;;2.60;99.90;;;;;;5067875;28;20196;-83
2023/03/02 12:22:52;;;;;;;24.08;13.98;;;2.30;1.00;;;;;;5066621;28;20227;-83
2023/03/02 12:25:29;;;;;;;26.27;15.98;;;3.10;1.00;;;;;;5067041;28;20214;-83
2023/03/02 12:27:56;;;;;;;26.45;17.38;;;3.10;1.00;;;;;;5067477;28;20189;-83
2023/03/02 12:30:26;;;;;;;28.75;16.17;;;3.20;1.00;;;;;;5068730;28;20269;-83
2023/03/02 12:33:03;;;;;;;34.25;18.00;;;3.00;1.00;;;;;;5075613;28;20223;-82
2023/03/02 12:35:33;;;;;;;33.08;18.75;;;3.00;1.00;;;;;;5073654;28;20219;-83
2023/03/02 12:38:03;;;;;;;30.40;17.48;;;3.20;1.00;;;;;;5069893;28;20198;-82
2023/03/02 12:40:39;;;;;;;51.47;21.48;;;3.10;1.00;;;;;;5073778;28;20266;-83
2023/03/02 12:43:29;;;;;;;40.60;19.92;;;3.30;99.90;;;;;;5073993;28;20230;-82
2023/03/02 12:46:25;;;;;;;47.97;22.05;;;3.30;99.90;;;;;;5074998;28;20225;-83
2023/03/02 12:49:04;;;;;;;45.30;23.88;;;3.20;1.00;;;;;;5061530;28;20263;-82
2023/03/02 12:51:47;;;;;;;39.05;19.55;;;3.20;1.00;;;;;;5074315;28;20196;-83
2023/03/02 12:54:16;;;;;;;44.75;20.60;;;3.20;1.00;;;;;;5073293;28;20224;-83